Time;durP1;ratioP1;P1;durP2;ratioP2;P2;SDS_P1;SDS_P2;PMS_P1;PMS_P2;Temp;Humidity;BMP_temperature;BMP_pressure;BME280_temperature;BME280_humidity;BME280_pressure;Samples;Min_cycle;Max_cycle;Signal;HPM_P1;HPM_P2
2021/04/24 00:00:25;;;;;;;15.77;6.07;;;5.40;99.90;;;;;;5030708;28;20526;-49
2021/04/24 00:02:52;;;;;;;10.77;5.18;;;5.30;99.90;;;;;;5032025;28;20128;-44
2021/04/24 00:05:34;;;;;;;12.25;5.53;;;5.40;99.90;;;;;;5031978;28;20018;-44
2021/04/24 00:08:03;;;;;;;15.52;6.00;;;5.30;99.90;;;;;;5031722;28;20021;-46
2021/04/24 00:10:31;;;;;;;13.25;6.05;;;5.20;99.90;;;;;;5031908;28;20063;-45
2021/04/24 00:12:57;;;;;;;18.80;7.40;;;5.20;99.90;;;;;;5032230;28;20104;-45
2021/04/24 00:15:23;;;;;;;14.07;5.45;;;5.20;99.90;;;;;;5032229;28;20026;-45
2021/04/24 00:17:48;;;;;;;13.60;5.93;;;5.20;99.90;;;;;;5031333;28;20025;-47
2021/04/24 00:20:17;;;;;;;15.88;6.25;;;5.20;99.90;;;;;;5031492;28;20025;-44
2021/04/24 00:22:44;;;;;;;19.98;6.43;;;5.10;99.90;;;;;;5031381;28;20029;-46
2021/04/24 00:25:11;;;;;;;20.08;6.43;;;5.10;99.90;;;;;;5031330;28;20061;-44
2021/04/24 00:27:36;;;;;;;18.52;7.85;;;5.10;99.90;;;;;;5030729;28;20033;-44
2021/04/24 00:30:04;;;;;;;15.35;7.13;;;5.10;99.90;;;;;;5029459;28;20077;-44
2021/04/24 00:32:29;;;;;;;17.73;6.93;;;5.00;99.90;;;;;;5027032;28;20034;-45
2021/04/24 00:34:55;;;;;;;18.40;7.05;;;5.00;99.90;;;;;;5029586;28;20024;-44
2021/04/24 00:37:20;;;;;;;20.05;6.53;;;5.00;99.90;;;;;;5028701;28;20056;-45
2021/04/24 00:39:45;;;;;;;16.42;6.90;;;5.00;99.90;;;;;;5028018;28;20551;-45
2021/04/24 00:42:11;;;;;;;20.77;6.72;;;4.90;99.90;;;;;;5028646;28;20029;-43
2021/04/24 00:44:48;;;;;;;15.55;7.50;;;4.90;99.90;;;;;;5030526;28;20056;-45
2021/04/24 00:47:16;;;;;;;16.73;6.90;;;4.90;99.90;;;;;;5027960;28;20022;-44
2021/04/24 00:49:42;;;;;;;20.77;8.02;;;4.80;99.90;;;;;;5027887;28;20053;-45
2021/04/24 00:52:07;;;;;;;16.38;6.28;;;4.80;99.90;;;;;;5027868;28;20083;-45
2021/04/24 00:54:34;;;;;;;16.27;7.03;;;4.70;99.90;;;;;;5030145;28;20025;-44
2021/04/24 00:57:01;;;;;;;18.75;7.55;;;4.70;99.90;;;;;;5030613;28;20029;-44
2021/04/24 00:59:27;;;;;;;17.48;7.43;;;4.70;99.90;;;;;;5029982;28;20017;-44
2021/04/24 01:01:52;;;;;;;17.95;6.95;;;4.70;99.90;;;;;;5027980;28;20052;-45
2021/04/24 01:04:19;;;;;;;15.85;6.90;;;4.70;99.90;;;;;;5030537;28;20402;-44
2021/04/24 01:06:44;;;;;;;15.38;6.70;;;4.80;99.90;;;;;;5030184;28;20112;-45
2021/04/24 01:09:10;;;;;;;18.60;7.72;;;4.70;99.90;;;;;;5030322;28;20579;-45
2021/04/24 01:11:36;;;;;;;16.00;7.57;;;4.70;99.90;;;;;;5030395;28;20074;-44
2021/04/24 01:14:03;;;;;;;17.50;7.35;;;4.80;99.90;;;;;;5030704;28;20033;-45
2021/04/24 01:16:28;;;;;;;15.90;7.30;;;4.80;99.90;;;;;;5030259;28;20594;-44
2021/04/24 01:18:54;;;;;;;17.77;7.05;;;4.70;99.90;;;;;;5029654;28;20192;-44
2021/04/24 01:21:22;;;;;;;17.83;8.05;;;4.80;99.90;;;;;;5029727;28;20029;-43
2021/04/24 01:23:48;;;;;;;16.33;6.55;;;4.70;99.90;;;;;;5030215;28;20021;-45
2021/04/24 01:26:14;;;;;;;16.42;7.68;;;4.60;99.90;;;;;;5029906;28;20022;-44
2021/04/24 01:28:39;;;;;;;20.67;8.00;;;4.60;99.90;;;;;;5028039;28;20049;-44
2021/04/24 01:31:05;;;;;;;28.23;7.70;;;4.60;99.90;;;;;;5030123;28;20108;-43
2021/04/24 01:33:30;;;;;;;13.48;6.95;;;4.60;99.90;;;;;;5029779;28;20021;-44
2021/04/24 01:35:56;;;;;;;25.73;7.85;;;4.50;99.90;;;;;;5030186;28;20550;-44
2021/04/24 01:38:21;;;;;;;25.98;8.32;;;4.50;99.90;;;;;;5029534;28;20549;-43
2021/04/24 01:40:47;;;;;;;21.33;7.63;;;4.50;99.90;;;;;;5030250;28;20189;-44
2021/04/24 01:43:12;;;;;;;20.80;7.97;;;4.40;99.90;;;;;;5030492;28;20355;-45
2021/04/24 01:45:38;;;;;;;13.38;6.45;;;4.40;99.90;;;;;;5030141;28;20542;-43
2021/04/24 01:48:06;;;;;;;14.15;6.43;;;4.40;99.90;;;;;;5029519;28;20018;-44
2021/04/24 01:50:41;;;;;;;19.63;7.03;;;4.30;99.90;;;;;;5029508;28;20404;-45
2021/04/24 01:53:09;;;;;;;18.17;6.60;;;4.30;99.90;;;;;;5030365;28;20049;-47
2021/04/24 01:55:37;;;;;;;17.90;7.90;;;4.20;99.90;;;;;;5028762;28;20060;-43
2021/04/24 01:58:06;;;;;;;16.40;6.82;;;4.20;99.90;;;;;;5029598;28;20498;-44
2021/04/24 02:00:36;;;;;;;18.73;6.47;;;4.20;99.90;;;;;;5030213;28;20034;-45
2021/04/24 02:03:07;;;;;;;20.13;7.93;;;4.20;99.90;;;;;;5030195;28;20391;-44
2021/04/24 02:05:33;;;;;;;17.38;7.18;;;4.20;99.90;;;;;;5028695;28;20075;-43
2021/04/24 02:08:07;;;;;;;18.52;6.95;;;4.20;99.90;;;;;;5029198;28;20022;-46
2021/04/24 02:10:34;;;;;;;15.40;7.55;;;4.20;99.90;;;;;;5030069;28;20018;-45
2021/04/24 02:13:02;;;;;;;16.67;7.32;;;4.10;99.90;;;;;;5029946;28;20022;-44
2021/04/24 02:15:28;;;;;;;14.48;6.47;;;4.10;99.90;;;;;;5029783;28;20487;-44
2021/04/24 02:17:54;;;;;;;15.50;6.75;;;4.10;99.90;;;;;;5027438;28;20029;-44
2021/04/24 02:20:19;;;;;;;20.65;7.07;;;4.10;99.90;;;;;;5029179;28;20044;-45
2021/04/24 02:22:45;;;;;;;12.65;6.50;;;4.10;99.90;;;;;;5029402;28;20057;-44
2021/04/24 02:25:14;;;;;;;16.95;7.63;;;4.20;99.90;;;;;;5027950;28;20391;-44
2021/04/24 02:27:39;;;;;;;19.70;8.15;;;4.10;99.90;;;;;;5028918;28;20044;-43
2021/04/24 02:30:08;;;;;;;15.75;6.30;;;4.10;99.90;;;;;;5029323;28;20108;-45
2021/04/24 02:32:34;;;;;;;21.90;7.55;;;4.10;99.90;;;;;;5029087;28;20376;-45
2021/04/24 02:35:00;;;;;;;19.13;7.32;;;4.00;99.90;;;;;;5029604;28;20029;-44
2021/04/24 02:37:25;;;;;;;20.48;7.30;;;4.00;99.90;;;;;;5028211;28;20029;-46
2021/04/24 02:39:53;;;;;;;18.85;7.70;;;4.00;99.90;;;;;;5028852;28;20102;-45
2021/04/24 02:42:25;;;;;;;27.77;7.25;;;4.00;99.90;;;;;;5028389;28;20219;-47
2021/04/24 02:44:53;;;;;;;19.52;7.47;;;4.00;99.90;;;;;;5028868;28;20068;-44
2021/04/24 02:47:19;;;;;;;21.42;7.43;;;3.90;99.90;;;;;;5028807;28;20037;-44
2021/04/24 02:49:45;;;;;;;16.85;7.10;;;3.90;99.90;;;;;;5028627;28;20037;-45
2021/04/24 02:52:10;;;;;;;20.52;7.55;;;3.80;99.90;;;;;;5028846;28;20386;-44
2021/04/24 02:54:36;;;;;;;17.10;7.15;;;3.80;99.90;;;;;;5028787;28;20094;-44
2021/04/24 02:57:03;;;;;;;17.17;7.45;;;3.80;99.90;;;;;;5028764;28;20052;-45
2021/04/24 02:59:29;;;;;;;18.65;6.82;;;3.60;99.90;;;;;;5027997;28;20102;-45
2021/04/24 03:01:55;;;;;;;17.50;7.13;;;3.70;99.90;;;;;;5029008;28;20084;-44
2021/04/24 03:04:20;;;;;;;20.10;8.23;;;3.70;99.90;;;;;;5028677;28;20029;-44
2021/04/24 03:06:47;;;;;;;16.58;7.90;;;3.60;99.90;;;;;;5028394;28;20025;-45
2021/04/24 03:09:13;;;;;;;17.63;7.05;;;3.60;99.90;;;;;;5028273;28;20033;-44
2021/04/24 03:11:39;;;;;;;17.08;7.30;;;3.50;99.90;;;;;;5029018;28;20025;-44
2021/04/24 03:14:06;;;;;;;23.08;8.23;;;3.60;99.90;;;;;;5028358;28;20037;-45
2021/04/24 03:16:32;;;;;;;15.95;7.47;;;3.60;99.90;;;;;;5028180;28;20031;-45
2021/04/24 03:18:57;;;;;;;14.90;7.10;;;3.60;99.90;;;;;;5027788;28;20029;-44
2021/04/24 03:21:24;;;;;;;26.25;7.97;;;3.60;99.90;;;;;;5028242;28;20425;-45
2021/04/24 03:23:51;;;;;;;16.75;7.60;;;3.60;99.90;;;;;;5028466;28;20037;-44
2021/04/24 03:26:17;;;;;;;23.38;7.85;;;3.50;99.90;;;;;;5027031;28;20030;-44
2021/04/24 03:28:43;;;;;;;21.20;7.65;;;3.40;99.90;;;;;;5027598;28;20559;-44
2021/04/24 03:31:09;;;;;;;22.75;8.80;;;3.40;99.90;;;;;;5028281;28;20079;-45
2021/04/24 03:33:35;;;;;;;17.35;8.32;;;3.40;99.90;;;;;;5028238;28;20037;-44
2021/04/24 03:36:01;;;;;;;23.52;8.57;;;3.30;99.90;;;;;;5026780;28;20117;-45
2021/04/24 03:38:26;;;;;;;16.38;7.22;;;3.30;99.90;;;;;;5026283;28;20037;-46
2021/04/24 03:40:52;;;;;;;22.92;7.88;;;3.30;99.90;;;;;;5028286;28;20459;-44
2021/04/24 03:43:18;;;;;;;17.50;7.97;;;3.30;99.90;;;;;;5028513;28;20057;-44
2021/04/24 03:45:44;;;;;;;18.33;7.45;;;3.30;99.90;;;;;;5028250;28;20033;-44
2021/04/24 03:48:09;;;;;;;19.13;8.07;;;3.30;99.90;;;;;;5027232;28;20399;-44
2021/04/24 03:50:35;;;;;;;21.50;9.80;;;3.30;99.90;;;;;;5024043;28;20040;-44
2021/04/24 03:53:01;;;;;;;20.02;8.00;;;3.20;99.90;;;;;;5027273;28;20033;-43
2021/04/24 03:55:27;;;;;;;17.98;7.97;;;3.20;99.90;;;;;;5027227;28;20026;-43
2021/04/24 03:57:56;;;;;;;22.80;8.57;;;3.30;99.90;;;;;;5025536;28;20037;-43
2021/04/24 04:00:26;;;;;;;20.75;8.57;;;3.30;99.90;;;;;;5027210;28;20028;-44
2021/04/24 04:02:57;;;;;;;21.88;9.45;;;3.20;99.90;;;;;;5027416;28;20024;-43
2021/04/24 04:05:28;;;;;;;20.27;8.63;;;3.20;99.90;;;;;;5027620;28;20040;-43
2021/04/24 04:07:55;;;;;;;20.40;9.23;;;3.30;99.90;;;;;;5024823;28;20013;-46
2021/04/24 04:10:22;;;;;;;19.50;8.10;;;3.40;99.90;;;;;;5027698;28;20033;-44
2021/04/24 04:12:48;;;;;;;19.10;9.45;;;3.30;99.90;;;;;;5028349;28;20112;-44
2021/04/24 04:15:15;;;;;;;24.17;9.77;;;3.40;99.90;;;;;;5028121;28;20116;-45
2021/04/24 04:17:41;;;;;;;28.05;10.40;;;3.40;99.90;;;;;;5027741;28;20052;-51
2021/04/24 04:20:09;;;;;;;21.75;8.52;;;3.40;99.90;;;;;;5024591;28;20103;-46
2021/04/24 04:22:35;;;;;;;18.65;9.27;;;3.30;99.90;;;;;;5007926;28;20038;-43
2021/04/24 04:25:01;;;;;;;19.58;10.00;;;3.30;99.90;;;;;;5008204;28;20040;-43
2021/04/24 04:27:27;;;;;;;19.20;9.55;;;3.40;99.90;;;;;;5006750;28;20109;-43
2021/04/24 04:29:52;;;;;;;23.92;9.45;;;3.40;99.90;;;;;;5011965;28;20040;-44
2021/04/24 04:32:18;;;;;;;22.27;9.35;;;3.40;99.90;;;;;;5012132;28;20093;-45
2021/04/24 04:34:44;;;;;;;15.57;8.35;;;3.50;99.90;;;;;;5012014;28;20442;-44
2021/04/24 04:37:09;;;;;;;20.35;9.20;;;3.50;99.90;;;;;;5010347;28;20038;-43
2021/04/24 04:39:35;;;;;;;20.08;9.45;;;3.40;99.90;;;;;;5010929;28;20030;-44
2021/04/24 04:42:00;;;;;;;23.65;8.82;;;3.50;99.90;;;;;;5011879;28;20026;-44
2021/04/24 04:44:26;;;;;;;25.08;10.98;;;3.50;99.90;;;;;;5011491;28;20472;-43
2021/04/24 04:46:51;;;;;;;22.67;8.98;;;3.50;99.90;;;;;;5011719;28;20057;-44
2021/04/24 04:49:17;;;;;;;18.83;9.05;;;3.50;99.90;;;;;;5010851;28;20022;-43
2021/04/24 04:51:42;;;;;;;23.90;9.45;;;3.60;99.90;;;;;;5027674;28;20025;-44
2021/04/24 04:54:08;;;;;;;26.63;10.68;;;3.60;99.90;;;;;;5031107;28;20022;-45
2021/04/24 04:56:33;;;;;;;31.63;11.30;;;3.60;99.90;;;;;;5031103;28;20104;-44
2021/04/24 04:58:59;;;;;;;20.90;9.68;;;3.60;99.90;;;;;;5029244;28;20361;-44
2021/04/24 05:01:24;;;;;;;25.63;10.23;;;3.60;99.90;;;;;;5030997;28;20061;-45
2021/04/24 05:03:50;;;;;;;27.02;9.95;;;3.60;99.90;;;;;;5030894;28;20419;-44
2021/04/24 05:06:15;;;;;;;20.95;9.52;;;3.60;99.90;;;;;;5030669;28;20026;-44
2021/04/24 05:08:41;;;;;;;25.60;10.18;;;3.60;99.90;;;;;;5028895;28;20047;-45
2021/04/24 05:11:07;;;;;;;22.10;10.00;;;3.70;99.90;;;;;;5030914;28;20428;-44
2021/04/24 05:13:33;;;;;;;23.20;11.63;;;3.80;99.90;;;;;;5030854;28;20140;-44
2021/04/24 05:15:59;;;;;;;28.38;11.02;;;3.80;99.90;;;;;;5030769;28;20026;-43
2021/04/24 05:18:24;;;;;;;21.85;9.60;;;3.80;99.90;;;;;;5030260;28;20044;-44
2021/04/24 05:20:51;;;;;;;34.45;12.10;;;3.90;99.90;;;;;;5030801;28;20284;-45
2021/04/24 05:23:16;;;;;;;31.92;11.10;;;3.90;99.90;;;;;;5030305;28;20395;-44
2021/04/24 05:25:42;;;;;;;28.65;10.52;;;3.90;99.90;;;;;;5029963;28;20033;-45
2021/04/24 05:28:07;;;;;;;23.45;10.65;;;3.90;99.90;;;;;;5029686;28;20490;-45
2021/04/24 05:30:33;;;;;;;24.77;10.82;;;3.90;99.90;;;;;;5029505;28;20053;-45
2021/04/24 05:32:58;;;;;;;28.23;12.40;;;3.90;99.90;;;;;;5029881;28;20181;-44
2021/04/24 05:35:25;;;;;;;22.17;10.07;;;4.00;99.90;;;;;;5029935;28;20036;-45
2021/04/24 05:37:51;;;;;;;29.75;11.05;;;4.10;99.90;;;;;;5028223;28;20037;-45
2021/04/24 05:40:17;;;;;;;19.83;11.05;;;4.10;99.90;;;;;;5030167;28;20091;-44
2021/04/24 05:42:43;;;;;;;21.50;10.40;;;4.20;99.90;;;;;;5029296;28;20040;-45
2021/04/24 05:45:11;;;;;;;26.23;11.25;;;4.20;99.90;;;;;;5029348;28;20056;-45
2021/04/24 05:47:49;;;;;;;23.48;10.05;;;4.20;99.90;;;;;;5027869;28;20530;-45
2021/04/24 05:50:19;;;;;;;26.20;10.38;;;4.30;99.90;;;;;;5028995;28;20058;-46
2021/04/24 05:52:45;;;;;;;25.92;11.30;;;4.30;99.90;;;;;;5029638;28;20475;-45
2021/04/24 05:55:12;;;;;;;21.13;9.85;;;4.30;99.90;;;;;;5030084;28;20041;-44
2021/04/24 05:57:38;;;;;;;26.55;10.68;;;4.30;99.90;;;;;;5029339;28;20030;-44
2021/04/24 06:00:08;;;;;;;23.83;10.23;;;4.40;99.90;;;;;;5028355;28;20310;-45
2021/04/24 06:02:34;;;;;;;28.75;11.20;;;4.40;99.90;;;;;;5029756;28;20036;-45
2021/04/24 06:05:04;;;;;;;25.58;10.52;;;4.50;99.90;;;;;;5029906;28;20102;-45
2021/04/24 06:07:29;;;;;;;26.30;11.57;;;4.50;99.90;;;;;;5029080;28;20018;-45
2021/04/24 06:09:55;;;;;;;27.27;10.23;;;4.50;99.90;;;;;;5029903;28;20454;-45
2021/04/24 06:12:22;;;;;;;32.45;10.60;;;4.60;99.90;;;;;;5028413;28;20025;-46
2021/04/24 06:14:47;;;;;;;24.85;11.13;;;4.50;99.90;;;;;;5028682;28;20110;-45
2021/04/24 06:17:14;;;;;;;25.40;10.32;;;4.70;99.90;;;;;;5028655;28;20029;-46
2021/04/24 06:19:39;;;;;;;29.70;11.70;;;4.80;99.90;;;;;;5027670;28;21071;-45
2021/04/24 06:22:05;;;;;;;21.70;10.10;;;4.80;99.90;;;;;;5023027;28;20030;-45
2021/04/24 06:24:30;;;;;;;26.08;10.95;;;4.90;99.90;;;;;;5028696;28;20771;-45
2021/04/24 06:26:56;;;;;;;22.50;10.65;;;5.00;99.90;;;;;;5028566;28;20071;-46
2021/04/24 06:29:21;;;;;;;20.75;11.00;;;5.10;99.90;;;;;;5026871;28;20032;-45
2021/04/24 06:31:48;;;;;;;28.45;10.63;;;5.10;99.90;;;;;;5028199;28;20032;-45
2021/04/24 06:34:14;;;;;;;24.45;10.10;;;5.20;99.90;;;;;;5028633;28;20017;-44
2021/04/24 06:36:39;;;;;;;21.77;9.98;;;5.40;99.90;;;;;;5027729;28;20068;-45
2021/04/24 06:39:06;;;;;;;25.17;10.57;;;5.50;99.90;;;;;;5027963;28;20425;-45
2021/04/24 06:41:34;;;;;;;25.45;9.80;;;5.60;99.90;;;;;;5028394;28;20018;-44
2021/04/24 06:44:01;;;;;;;20.83;9.50;;;5.80;99.90;;;;;;5028290;28;20116;-45
2021/04/24 06:46:28;;;;;;;24.02;10.10;;;6.00;99.90;;;;;;5026715;28;20087;-45
2021/04/24 06:48:54;;;;;;;21.23;9.15;;;6.20;99.90;;;;;;5028002;28;20025;-44
2021/04/24 06:51:20;;;;;;;17.45;8.82;;;6.40;99.90;;;;;;5027082;28;20040;-45
2021/04/24 06:53:45;;;;;;;19.38;8.55;;;6.60;99.90;;;;;;5027303;28;20384;-45
2021/04/24 06:56:11;;;;;;;20.55;8.82;;;6.80;99.90;;;;;;5027094;28;20220;-45
2021/04/24 06:58:37;;;;;;;18.27;7.65;;;6.90;99.90;;;;;;5026738;28;20064;-45
2021/04/24 07:01:03;;;;;;;16.88;7.68;;;7.20;99.90;;;;;;5027090;28;20490;-45
2021/04/24 07:03:28;;;;;;;19.35;9.30;;;7.50;99.90;;;;;;5026283;28;20031;-45
2021/04/24 07:05:54;;;;;;;14.50;8.30;;;7.80;99.90;;;;;;5027664;28;20048;-46
2021/04/24 07:08:19;;;;;;;21.65;7.63;;;8.00;99.90;;;;;;5028261;28;20057;-45
2021/04/24 07:10:45;;;;;;;16.77;7.53;;;8.20;99.90;;;;;;5028806;28;20025;-45
2021/04/24 07:13:11;;;;;;;18.58;7.43;;;8.20;99.90;;;;;;5028646;28;20541;-45
2021/04/24 07:15:37;;;;;;;12.10;6.90;;;8.20;99.90;;;;;;5026983;28;20033;-45
2021/04/24 07:18:03;;;;;;;13.30;6.45;;;8.40;99.90;;;;;;5027746;28;20032;-47
2021/04/24 07:20:29;;;;;;;16.63;6.45;;;8.50;99.90;;;;;;5023065;28;20026;-46
2021/04/24 07:22:55;;;;;;;15.50;5.78;;;8.40;99.90;;;;;;5024366;28;20116;-45
2021/04/24 07:25:21;;;;;;;15.77;6.28;;;8.60;99.90;;;;;;5028699;28;20029;-45
2021/04/24 07:27:46;;;;;;;14.75;5.22;;;8.80;99.90;;;;;;5028012;28;20071;-45
2021/04/24 07:30:12;;;;;;;13.55;5.40;;;8.80;99.90;;;;;;5028514;28;20037;-47
2021/04/24 07:32:38;;;;;;;10.88;5.90;;;8.90;99.90;;;;;;5028229;28;20387;-45
2021/04/24 07:35:06;;;;;;;11.88;5.10;;;8.90;99.90;;;;;;5027999;28;20083;-45
2021/04/24 07:37:31;;;;;;;14.23;5.88;;;9.00;99.90;;;;;;5027443;28;20076;-45
2021/04/24 07:39:57;;;;;;;11.90;5.57;;;9.20;99.90;;;;;;5028292;28;20060;-46
2021/04/24 07:42:22;;;;;;;11.02;5.40;;;9.40;99.90;;;;;;5027975;28;20648;-45
2021/04/24 07:44:48;;;;;;;16.98;5.47;;;9.80;99.90;;;;;;5026609;28;20025;-45
2021/04/24 07:47:14;;;;;;;13.70;5.15;;;9.90;99.90;;;;;;5027630;28;20029;-45
2021/04/24 07:49:40;;;;;;;11.85;5.10;;;9.90;99.90;;;;;;5027574;28;20117;-45
2021/04/24 07:52:11;;;;;;;8.05;4.95;;;9.90;99.90;;;;;;5027340;28;20029;-46
2021/04/24 07:54:44;;;;;;;13.48;6.00;;;9.90;99.90;;;;;;5028656;28;20032;-43
2021/04/24 07:57:11;;;;;;;16.65;6.90;;;9.60;99.90;;;;;;5023324;28;20289;-43
2021/04/24 07:59:36;;;;;;;14.18;5.35;;;9.60;99.90;;;;;;5022343;28;20022;-47
2021/04/24 08:02:02;;;;;;;17.65;6.10;;;9.40;99.90;;;;;;5026442;28;20022;-43
2021/04/24 08:04:28;;;;;;;13.35;5.03;;;9.50;99.90;;;;;;5030211;28;20501;-45
2021/04/24 08:06:53;;;;;;;12.27;5.60;;;9.60;99.90;;;;;;5031462;28;20065;-44
2021/04/24 08:09:19;;;;;;;16.55;5.75;;;9.70;99.90;;;;;;5031176;28;20377;-44
2021/04/24 08:11:44;;;;;;;14.13;5.13;;;9.70;99.90;;;;;;5032001;28;20133;-44
2021/04/24 08:14:10;;;;;;;13.13;5.53;;;9.60;99.90;;;;;;5030221;28;20025;-45
2021/04/24 08:16:35;;;;;;;18.65;5.90;;;9.40;99.90;;;;;;5021491;28;20040;-45
2021/04/24 08:19:01;;;;;;;11.45;5.53;;;9.30;99.90;;;;;;5028539;28;20560;-43
2021/04/24 08:21:29;;;;;;;9.63;5.93;;;9.30;99.90;;;;;;5023568;28;20028;-45
2021/04/24 08:23:59;;;;;;;11.57;5.53;;;9.10;99.90;;;;;;5029871;28;20026;-44
2021/04/24 08:26:40;;;;;;;13.95;5.53;;;9.00;99.90;;;;;;5030187;28;20077;-46
2021/04/24 08:29:07;;;;;;;11.57;5.53;;;9.10;99.90;;;;;;5030165;28;20053;-46
2021/04/24 08:31:33;;;;;;;12.80;6.22;;;9.10;99.90;;;;;;5030671;28;20079;-48
2021/04/24 08:33:59;;;;;;;16.27;6.45;;;9.20;99.90;;;;;;5030362;28;20029;-46
2021/04/24 08:36:25;;;;;;;12.30;6.15;;;9.30;99.90;;;;;;5030444;28;20372;-47
2021/04/24 08:38:50;;;;;;;14.20;5.70;;;9.40;99.90;;;;;;5029458;28;20454;-45
2021/04/24 08:41:17;;;;;;;8.60;5.60;;;10.00;99.90;;;;;;5030614;28;20057;-46
2021/04/24 08:43:42;;;;;;;10.63;5.10;;;10.90;99.90;;;;;;5030213;28;20026;-48
2021/04/24 08:46:08;;;;;;;14.15;5.80;;;11.40;99.20;;;;;;5028021;28;20030;-47
2021/04/24 08:48:34;;;;;;;14.38;5.65;;;11.70;96.10;;;;;;5027893;28;20017;-46
2021/04/24 08:51:01;;;;;;;9.90;5.38;;;11.90;94.00;;;;;;5028109;28;20091;-47
2021/04/24 08:53:27;;;;;;;7.88;4.60;;;12.50;90.80;;;;;;5028896;28;20112;-47
2021/04/24 08:55:52;;;;;;;10.18;4.72;;;13.00;90.40;;;;;;5028738;28;20028;-47
2021/04/24 08:58:20;;;;;;;10.77;4.43;;;13.40;82.50;;;;;;5028651;28;20030;-48
2021/04/24 09:00:48;;;;;;;13.05;5.10;;;14.70;77.80;;;;;;5030277;28;20029;-47
2021/04/24 09:03:19;;;;;;;10.60;4.60;;;15.30;68.20;;;;;;5029884;28;20025;-47
2021/04/24 09:05:45;;;;;;;8.13;4.30;;;16.20;62.00;;;;;;5030574;28;20252;-45
2021/04/24 09:08:11;;;;;;;9.32;4.07;;;16.80;60.20;;;;;;5029165;28;20501;-48
2021/04/24 09:10:39;;;;;;;8.52;3.50;;;17.80;55.50;;;;;;5029926;28;20472;-46
2021/04/24 09:13:05;;;;;;;6.45;3.85;;;17.00;53.70;;;;;;5030414;28;20025;-46
2021/04/24 09:15:31;;;;;;;6.80;3.50;;;16.90;54.60;;;;;;5025752;28;20033;-47
2021/04/24 09:18:00;;;;;;;8.52;3.33;;;17.30;53.00;;;;;;5010806;28;20357;-46
2021/04/24 09:20:32;;;;;;;7.13;4.20;;;16.90;54.00;;;;;;5024248;28;20030;-47
2021/04/24 09:23:06;;;;;;;7.75;3.63;;;15.90;55.20;;;;;;5019206;28;20059;-47
2021/04/24 09:25:38;;;;;;;8.52;3.30;;;16.00;58.30;;;;;;5030683;28;20029;-49
2021/04/24 09:28:07;;;;;;;8.77;3.42;;;16.90;54.40;;;;;;5030113;28;20162;-48
2021/04/24 09:30:35;;;;;;;8.55;3.40;;;16.50;53.20;;;;;;5030554;28;20507;-50
2021/04/24 09:33:03;;;;;;;8.43;3.35;;;16.40;54.20;;;;;;5030487;28;20512;-46
2021/04/24 09:35:43;;;;;;;6.50;3.38;;;17.40;53.00;;;;;;5031491;28;20030;-48
2021/04/24 09:38:15;;;;;;;7.37;3.23;;;17.90;51.50;;;;;;5026900;28;20030;-47
2021/04/24 09:40:41;;;;;;;7.05;3.80;;;18.50;51.40;;;;;;5029669;28;20264;-52
2021/04/24 09:43:07;;;;;;;7.63;3.22;;;19.10;48.70;;;;;;5030356;28;20113;-52
2021/04/24 09:45:41;;;;;;;9.30;4.25;;;19.80;49.10;;;;;;5030307;28;20221;-52
2021/04/24 09:48:27;;;;;;;10.18;4.68;;;20.10;46.70;;;;;;5029566;28;20089;-52
2021/04/24 09:50:53;;;;;;;6.68;3.42;;;18.70;46.90;;;;;;5029358;28;20033;-52
2021/04/24 09:53:23;;;;;;;8.52;4.88;;;18.40;49.30;;;;;;5030228;28;20033;-52
2021/04/24 09:55:51;;;;;;;11.43;4.75;;;17.30;49.70;;;;;;5030128;28;20030;-52
2021/04/24 09:58:34;;;;;;;7.10;3.53;;;17.40;52.00;;;;;;5030636;28;20159;-52
2021/04/24 10:01:39;;;;;;;7.47;3.40;;;17.90;54.90;;;;;;5031690;28;20034;-52
2021/04/24 10:04:10;;;;;;;6.30;3.35;;;18.60;48.50;;;;;;5028673;28;20095;-52
2021/04/24 10:06:42;;;;;;;8.38;4.15;;;19.20;48.90;;;;;;5028629;28;20033;-52
2021/04/24 10:09:18;;;;;;;8.27;4.07;;;20.20;46.00;;;;;;5029631;28;20128;-53
2021/04/24 10:11:46;;;;;;;5.63;3.88;;;19.20;46.10;;;;;;5030304;28;20075;-52
2021/04/24 10:14:12;;;;;;;9.55;4.05;;;20.20;49.20;;;;;;5030946;28;20029;-52
2021/04/24 10:16:43;;;;;;;8.48;4.30;;;19.40;46.80;;;;;;5030580;28;20477;-52
2021/04/24 10:19:14;;;;;;;8.55;4.00;;;20.10;45.20;;;;;;5029531;28;20120;-52
2021/04/24 10:21:41;;;;;;;7.18;4.00;;;20.10;45.80;;;;;;5029796;28;20039;-53
2021/04/24 10:24:09;;;;;;;8.52;3.88;;;20.60;45.10;;;;;;5028922;28;20041;-53
2021/04/24 10:26:36;;;;;;;9.82;4.15;;;20.90;45.30;;;;;;5028617;28;20515;-52
2021/04/24 10:29:03;;;;;;;10.40;3.55;;;20.20;42.40;;;;;;5028640;28;20021;-51
2021/04/24 10:31:29;;;;;;;4.82;3.08;;;19.60;44.40;;;;;;5028315;28;20038;-51
2021/04/24 10:33:56;;;;;;;3.92;2.88;;;18.50;45.90;;;;;;5028633;28;20025;-51
2021/04/24 10:36:22;;;;;;;8.57;3.60;;;18.60;49.50;;;;;;5029485;28;20029;-56
2021/04/24 10:38:49;;;;;;;8.05;3.75;;;19.30;45.10;;;;;;5028597;28;20030;-52
2021/04/24 10:41:24;;;;;;;8.30;3.40;;;19.70;45.60;;;;;;5027920;28;20587;-52
2021/04/24 10:44:02;;;;;;;6.97;3.55;;;19.10;45.30;;;;;;5029222;28;20036;-51
2021/04/24 10:46:57;;;;;;;6.72;4.00;;;18.20;45.80;;;;;;5028885;28;20029;-51
2021/04/24 10:49:32;;;;;;;6.28;3.38;;;17.20;48.40;;;;;;5028046;28;20041;-52
2021/04/24 10:52:18;;;;;;;7.57;4.15;;;16.50;50.60;;;;;;5028151;28;20049;-52
2021/04/24 10:55:03;;;;;;;9.82;4.18;;;16.30;50.80;;;;;;5028704;28;20040;-52
2021/04/24 10:57:38;;;;;;;6.40;3.33;;;17.10;52.90;;;;;;5028482;28;20037;-52
2021/04/24 11:00:34;;;;;;;7.60;3.30;;;18.00;49.80;;;;;;5023313;28;20045;-52
2021/04/24 11:03:01;;;;;;;5.88;3.45;;;17.70;48.70;;;;;;5021282;28;20339;-52
2021/04/24 11:05:46;;;;;;;9.35;3.63;;;17.30;50.10;;;;;;5024345;28;20098;-52
2021/04/24 11:08:14;;;;;;;6.93;3.50;;;18.50;50.50;;;;;;5027071;28;20442;-52
2021/04/24 11:10:56;;;;;;;9.60;3.50;;;18.80;46.10;;;;;;5028335;28;20029;-52
2021/04/24 11:13:23;;;;;;;5.72;3.50;;;18.90;46.00;;;;;;5028004;28;20217;-52
2021/04/24 11:15:49;;;;;;;7.03;3.40;;;19.00;47.00;;;;;;5028252;28;20022;-52
2021/04/24 11:18:16;;;;;;;7.88;3.40;;;19.50;45.60;;;;;;5026960;28;20120;-52
2021/04/24 11:20:47;;;;;;;8.25;3.40;;;18.80;45.30;;;;;;5023193;28;20113;-53
2021/04/24 11:23:31;;;;;;;5.57;3.15;;;20.50;41.70;;;;;;5009930;28;20061;-52
2021/04/24 11:25:58;;;;;;;7.18;3.13;;;19.40;42.30;;;;;;5006310;28;20577;-53
2021/04/24 11:28:24;;;;;;;5.00;3.40;;;20.40;46.40;;;;;;5005780;28;20021;-53
2021/04/24 11:31:07;;;;;;;7.57;3.20;;;21.90;45.20;;;;;;5006629;28;20042;-53
2021/04/24 11:33:45;;;;;;;5.28;2.67;;;23.10;40.60;;;;;;5007085;28;20036;-53
2021/04/24 11:36:16;;;;;;;6.25;2.95;;;22.30;40.20;;;;;;5005789;28;20259;-53
2021/04/24 11:38:57;;;;;;;6.32;2.80;;;21.20;39.80;;;;;;5012806;28;20026;-52
2021/04/24 11:41:40;;;;;;;4.35;2.47;;;20.20;41.70;;;;;;5025459;28;20703;-52
2021/04/24 11:44:15;;;;;;;7.30;3.00;;;19.10;42.20;;;;;;5033060;28;20138;-52
2021/04/24 11:46:41;;;;;;;6.20;3.47;;;18.40;45.60;;;;;;5035459;28;20502;-52
2021/04/24 11:49:09;;;;;;;6.30;3.15;;;18.50;46.00;;;;;;5033859;28;20041;-52
2021/04/24 11:51:54;;;;;;;9.68;3.58;;;19.20;44.60;;;;;;5033087;28;20028;-53
2021/04/24 11:54:37;;;;;;;5.03;2.95;;;19.70;44.40;;;;;;5031314;28;20116;-53
2021/04/24 11:57:08;;;;;;;6.47;2.95;;;20.70;41.20;;;;;;5034273;28;20037;-52
2021/04/24 11:59:36;;;;;;;5.75;2.53;;;20.40;41.20;;;;;;5033262;28;20018;-52
2021/04/24 12:02:23;;;;;;;5.55;2.47;;;20.20;41.40;;;;;;5032847;28;20518;-52
2021/04/24 12:04:55;;;;;;;7.05;2.65;;;20.40;43.30;;;;;;5027605;28;20128;-52
2021/04/24 12:07:21;;;;;;;6.75;2.65;;;19.50;41.40;;;;;;5016945;28;20026;-51
2021/04/24 12:09:53;;;;;;;6.50;2.85;;;18.30;43.90;;;;;;5014933;28;20033;-51
2021/04/24 12:12:21;;;;;;;5.90;3.30;;;17.70;46.60;;;;;;5015184;28;20014;-51
2021/04/24 12:14:47;;;;;;;8.15;3.20;;;17.30;48.50;;;;;;5015116;28;20026;-51
2021/04/24 12:17:17;;;;;;;5.97;2.85;;;17.70;50.00;;;;;;5015156;28;20034;-51
2021/04/24 12:19:44;;;;;;;5.18;2.92;;;18.10;47.20;;;;;;5014757;28;20026;-51
2021/04/24 12:22:19;;;;;;;7.65;3.15;;;18.50;44.80;;;;;;5028271;28;20165;-52
2021/04/24 12:24:59;;;;;;;4.70;2.60;;;18.90;45.90;;;;;;5034744;28;20034;-52
2021/04/24 12:27:27;;;;;;;7.03;2.70;;;18.60;42.90;;;;;;5034202;28;20105;-52
2021/04/24 12:29:54;;;;;;;6.60;2.75;;;18.30;45.50;;;;;;5034927;28;20040;-52
2021/04/24 12:32:23;;;;;;;6.45;3.03;;;17.80;46.70;;;;;;5034757;28;20376;-51
2021/04/24 12:34:49;;;;;;;9.75;3.30;;;17.40;46.00;;;;;;5034737;28;20116;-51
2021/04/24 12:37:22;;;;;;;9.07;3.72;;;16.80;46.70;;;;;;5034602;28;20223;-51
2021/04/24 12:40:06;;;;;;;7.78;3.15;;;16.70;48.20;;;;;;5034571;28;20105;-51
2021/04/24 12:42:32;;;;;;;4.30;2.55;;;16.30;48.80;;;;;;5034807;28;20384;-51
2021/04/24 12:44:58;;;;;;;10.15;2.83;;;16.10;48.50;;;;;;5034488;28;20191;-50
2021/04/24 12:47:24;;;;;;;4.80;2.67;;;16.00;49.00;;;;;;5034080;28;20394;-51
2021/04/24 12:49:50;;;;;;;8.82;3.25;;;16.30;51.00;;;;;;5031042;28;20067;-51